sensor_id;sensor_type;location;lat;lon;timestamp;pressure;altitude;pressure_sealevel;temperature;humidity
12951;BME280;6540;50.858;7.232;2023-04-26T00:01:10;51915.06;;;-142.34;27.49
12951;BME280;6540;50.858;7.232;2023-04-26T00:03:36;51882.78;;;-142.34;27.33
12951;BME280;6540;50.858;7.232;2023-04-26T00:06:01;51911.03;;;-142.34;27.09
12951;BME280;6540;50.858;7.232;2023-04-26T00:08:30;51852.53;;;-142.34;26.78
12951;BME280;6540;50.858;7.232;2023-04-26T00:10:55;51902.97;;;-142.34;26.60
12951;BME280;6540;50.858;7.232;2023-04-26T00:13:20;51890.84;;;-142.34;27.08
12951;BME280;6540;50.858;7.232;2023-04-26T00:15:46;51862.63;;;-142.34;27.84
12951;BME280;6540;50.858;7.232;2023-04-26T00:18:11;51878.75;;;-142.34;27.99
12951;BME280;6540;50.858;7.232;2023-04-26T00:20:37;51900.94;;;-142.34;28.05
12951;BME280;6540;50.858;7.232;2023-04-26T00:23:03;51866.66;;;-142.34;28.39
12951;BME280;6540;50.858;7.232;2023-04-26T00:25:28;51858.56;;;-142.34;27.91
12951;BME280;6540;50.858;7.232;2023-04-26T00:27:54;51842.44;;;-142.34;27.99
12951;BME280;6540;50.858;7.232;2023-04-26T00:30:20;51876.72;;;-142.34;27.49
12951;BME280;6540;50.858;7.232;2023-04-26T00:32:45;51894.88;;;-142.34;28.45
12951;BME280;6540;50.858;7.232;2023-04-26T00:35:12;51898.94;;;-142.34;28.13
12951;BME280;6540;50.858;7.232;2023-04-26T00:37:37;51907.00;;;-142.34;28.85
12951;BME280;6540;50.858;7.232;2023-04-26T00:40:03;51872.69;;;-142.34;28.54
12951;BME280;6540;50.858;7.232;2023-04-26T00:42:30;51890.84;;;-142.34;28.10
12951;BME280;6540;50.858;7.232;2023-04-26T00:44:55;51902.97;;;-142.34;27.94
12951;BME280;6540;50.858;7.232;2023-04-26T00:47:22;51874.72;;;-142.34;28.35
12951;BME280;6540;50.858;7.232;2023-04-26T00:49:48;51917.06;;;-142.34;28.83
12951;BME280;6540;50.858;7.232;2023-04-26T00:52:14;51898.94;;;-142.34;27.95
12951;BME280;6540;50.858;7.232;2023-04-26T00:54:39;51858.56;;;-142.34;27.04
12951;BME280;6540;50.858;7.232;2023-04-26T00:57:05;51874.72;;;-142.34;26.74
12951;BME280;6540;50.858;7.232;2023-04-26T00:59:34;51882.78;;;-142.34;27.54
12951;BME280;6540;50.858;7.232;2023-04-26T01:02:01;51904.97;;;-142.34;28.00
12951;BME280;6540;50.858;7.232;2023-04-26T01:04:27;51882.78;;;-142.34;27.57
12951;BME280;6540;50.858;7.232;2023-04-26T01:06:54;51896.91;;;-142.34;27.45
12951;BME280;6540;50.858;7.232;2023-04-26T01:09:20;51904.97;;;-142.34;27.26
12951;BME280;6540;50.858;7.232;2023-04-26T01:11:46;51862.63;;;-142.34;27.36
12951;BME280;6540;50.858;7.232;2023-04-26T01:14:13;51896.91;;;-142.34;28.36
12951;BME280;6540;50.858;7.232;2023-04-26T01:16:38;51870.69;;;-142.34;27.53
12951;BME280;6540;50.858;7.232;2023-04-26T01:19:11;51898.94;;;-142.34;27.38
12951;BME280;6540;50.858;7.232;2023-04-26T01:21:36;51878.75;;;-142.34;27.06
12951;BME280;6540;50.858;7.232;2023-04-26T01:24:02;51921.13;;;-142.34;26.93
12951;BME280;6540;50.858;7.232;2023-04-26T01:26:27;51898.94;;;-142.34;27.32
12951;BME280;6540;50.858;7.232;2023-04-26T01:28:53;51858.56;;;-142.34;27.10
12951;BME280;6540;50.858;7.232;2023-04-26T01:31:18;51870.69;;;-142.34;27.39
12951;BME280;6540;50.858;7.232;2023-04-26T01:33:43;51890.84;;;-142.34;27.83
12951;BME280;6540;50.858;7.232;2023-04-26T01:36:09;51915.06;;;-142.34;27.10
12951;BME280;6540;50.858;7.232;2023-04-26T01:38:37;51864.63;;;-142.34;27.25
12951;BME280;6540;50.858;7.232;2023-04-26T01:41:03;51866.66;;;-142.34;26.75
12951;BME280;6540;50.858;7.232;2023-04-26T01:43:28;51870.69;;;-142.34;26.78
12951;BME280;6540;50.858;7.232;2023-04-26T01:45:53;51890.84;;;-142.34;27.05
12951;BME280;6540;50.858;7.232;2023-04-26T01:48:19;51892.88;;;-142.34;27.47
12951;BME280;6540;50.858;7.232;2023-04-26T01:50:44;51921.13;;;-142.34;27.09
12951;BME280;6540;50.858;7.232;2023-04-26T01:53:09;51890.84;;;-142.34;28.37
12951;BME280;6540;50.858;7.232;2023-04-26T01:55:35;51896.91;;;-142.34;28.33
12951;BME280;6540;50.858;7.232;2023-04-26T01:58:00;51874.72;;;-142.34;28.88
12951;BME280;6540;50.858;7.232;2023-04-26T02:00:27;51850.50;;;-142.34;28.38
12951;BME280;6540;50.858;7.232;2023-04-26T02:02:56;51898.94;;;-142.34;27.97
12951;BME280;6540;50.858;7.232;2023-04-26T02:05:22;51898.94;;;-142.34;28.64
12951;BME280;6540;50.858;7.232;2023-04-26T02:07:48;51904.97;;;-142.34;28.61
12951;BME280;6540;50.858;7.232;2023-04-26T02:10:13;51894.88;;;-142.34;28.47
12951;BME280;6540;50.858;7.232;2023-04-26T02:12:38;51907.00;;;-142.34;28.62
12951;BME280;6540;50.858;7.232;2023-04-26T02:15:04;51892.88;;;-142.34;28.23
12951;BME280;6540;50.858;7.232;2023-04-26T02:17:31;51894.88;;;-142.34;27.32
12951;BME280;6540;50.858;7.232;2023-04-26T02:19:56;51894.88;;;-142.34;27.27
12951;BME280;6540;50.858;7.232;2023-04-26T02:22:22;51888.84;;;-142.34;27.42
12951;BME280;6540;50.858;7.232;2023-04-26T02:24:50;51915.06;;;-142.34;27.61
12951;BME280;6540;50.858;7.232;2023-04-26T02:27:16;51894.88;;;-142.34;27.73
12951;BME280;6540;50.858;7.232;2023-04-26T02:29:41;51876.72;;;-142.34;28.17
12951;BME280;6540;50.858;7.232;2023-04-26T02:32:07;51890.84;;;-142.34;28.77
12951;BME280;6540;50.858;7.232;2023-04-26T02:34:32;51929.19;;;-142.34;28.61
12951;BME280;6540;50.858;7.232;2023-04-26T02:36:58;51886.81;;;-142.34;28.99
12951;BME280;6540;50.858;7.232;2023-04-26T02:39:23;51917.06;;;-142.34;28.62
12951;BME280;6540;50.858;7.232;2023-04-26T02:41:48;51907.00;;;-142.34;29.07
12951;BME280;6540;50.858;7.232;2023-04-26T02:44:14;51882.78;;;-142.34;30.10
12951;BME280;6540;50.858;7.232;2023-04-26T02:46:39;51907.00;;;-142.34;29.09
12951;BME280;6540;50.858;7.232;2023-04-26T02:49:04;51878.75;;;-142.34;28.88
12951;BME280;6540;50.858;7.232;2023-04-26T02:51:30;51882.78;;;-142.34;29.00
12951;BME280;6540;50.858;7.232;2023-04-26T02:53:56;51854.53;;;-142.34;29.01
12951;BME280;6540;50.858;7.232;2023-04-26T02:56:22;51886.81;;;-142.34;28.37
12951;BME280;6540;50.858;7.232;2023-04-26T02:58:47;51927.16;;;-142.34;29.13
12951;BME280;6540;50.858;7.232;2023-04-26T03:01:12;51898.94;;;-142.34;27.71
12951;BME280;6540;50.858;7.232;2023-04-26T03:03:38;51904.97;;;-142.34;27.51
12951;BME280;6540;50.858;7.232;2023-04-26T03:06:04;51902.97;;;-142.34;28.68
12951;BME280;6540;50.858;7.232;2023-04-26T03:08:29;51915.06;;;-142.34;28.68
12951;BME280;6540;50.858;7.232;2023-04-26T03:10:55;51890.84;;;-142.34;28.92
12951;BME280;6540;50.858;7.232;2023-04-26T03:13:22;51872.69;;;-142.34;28.80
12951;BME280;6540;50.858;7.232;2023-04-26T03:15:48;51911.03;;;-142.34;28.81
12951;BME280;6540;50.858;7.232;2023-04-26T03:18:14;51919.09;;;-142.34;29.02
12951;BME280;6540;50.858;7.232;2023-04-26T03:20:40;51886.81;;;-142.34;28.63
12951;BME280;6540;50.858;7.232;2023-04-26T03:23:06;51894.88;;;-142.34;28.05
12951;BME280;6540;50.858;7.232;2023-04-26T03:25:32;51864.63;;;-142.34;28.19
12951;BME280;6540;50.858;7.232;2023-04-26T03:27:57;51919.09;;;-142.34;28.55
12951;BME280;6540;50.858;7.232;2023-04-26T03:30:23;51902.97;;;-142.34;28.82
12951;BME280;6540;50.858;7.232;2023-04-26T03:32:48;51915.06;;;-142.34;27.66
12951;BME280;6540;50.858;7.232;2023-04-26T03:35:13;51921.13;;;-142.34;27.17
12951;BME280;6540;50.858;7.232;2023-04-26T03:37:39;51878.75;;;-142.34;27.13
12951;BME280;6540;50.858;7.232;2023-04-26T03:40:06;51888.84;;;-142.34;27.72
12951;BME280;6540;50.858;7.232;2023-04-26T03:42:32;51943.31;;;-142.34;28.17
12951;BME280;6540;50.858;7.232;2023-04-26T03:44:58;51915.06;;;-142.34;27.88
12951;BME280;6540;50.858;7.232;2023-04-26T03:47:23;51923.13;;;-142.34;27.07
12951;BME280;6540;50.858;7.232;2023-04-26T03:49:48;51911.03;;;-142.34;27.75
12951;BME280;6540;50.858;7.232;2023-04-26T03:52:14;51911.03;;;-142.34;27.24
12951;BME280;6540;50.858;7.232;2023-04-26T03:54:39;51890.84;;;-142.34;28.34
12951;BME280;6540;50.858;7.232;2023-04-26T03:57:05;51894.88;;;-142.34;27.63
12951;BME280;6540;50.858;7.232;2023-04-26T03:59:30;51911.03;;;-142.34;28.95
12951;BME280;6540;50.858;7.232;2023-04-26T04:01:55;51907.00;;;-142.34;29.24
12951;BME280;6540;50.858;7.232;2023-04-26T04:04:21;51923.13;;;-142.34;28.21
12951;BME280;6540;50.858;7.232;2023-04-26T04:06:46;51971.53;;;-142.34;28.55
12951;BME280;6540;50.858;7.232;2023-04-26T04:09:11;51898.94;;;-142.34;28.92
12951;BME280;6540;50.858;7.232;2023-04-26T04:11:37;51911.03;;;-142.34;28.10
12951;BME280;6540;50.858;7.232;2023-04-26T04:14:02;51878.75;;;-142.34;28.46
12951;BME280;6540;50.858;7.232;2023-04-26T04:16:27;51929.19;;;-142.34;29.03
12951;BME280;6540;50.858;7.232;2023-04-26T04:18:53;51900.94;;;-142.34;30.03
12951;BME280;6540;50.858;7.232;2023-04-26T04:21:18;51878.75;;;-142.34;29.64
12951;BME280;6540;50.858;7.232;2023-04-26T04:23:43;51931.19;;;-142.34;29.31
12951;BME280;6540;50.858;7.232;2023-04-26T04:26:09;51884.81;;;-142.34;29.48
12951;BME280;6540;50.858;7.232;2023-04-26T04:28:38;51888.84;;;-142.34;29.52
12951;BME280;6540;50.858;7.232;2023-04-26T04:31:05;51858.56;;;-142.34;30.24
12951;BME280;6540;50.858;7.232;2023-04-26T04:33:33;51943.31;;;-142.34;29.87
12951;BME280;6540;50.858;7.232;2023-04-26T04:35:58;51900.94;;;-142.34;29.73
12951;BME280;6540;50.858;7.232;2023-04-26T04:38:24;51890.84;;;-142.34;29.92
12951;BME280;6540;50.858;7.232;2023-04-26T04:40:49;51904.97;;;-142.34;29.73
12951;BME280;6540;50.858;7.232;2023-04-26T04:43:15;51919.09;;;-142.34;30.82
12951;BME280;6540;50.858;7.232;2023-04-26T04:45:41;51911.03;;;-142.34;30.36
12951;BME280;6540;50.858;7.232;2023-04-26T04:48:06;51913.03;;;-142.34;30.49
12951;BME280;6540;50.858;7.232;2023-04-26T04:50:33;51860.59;;;-142.34;31.32
12951;BME280;6540;50.858;7.232;2023-04-26T04:52:59;51900.94;;;-142.34;30.74
12951;BME280;6540;50.858;7.232;2023-04-26T04:55:25;51896.91;;;-142.34;29.34
12951;BME280;6540;50.858;7.232;2023-04-26T04:57:50;51911.03;;;-142.34;30.45
12951;BME280;6540;50.858;7.232;2023-04-26T05:00:16;51882.78;;;-142.34;29.96
12951;BME280;6540;50.858;7.232;2023-04-26T05:02:41;51862.63;;;-142.34;29.71
12951;BME280;6540;50.858;7.232;2023-04-26T05:05:07;51890.84;;;-142.34;29.47
12951;BME280;6540;50.858;7.232;2023-04-26T05:07:33;51892.88;;;-142.34;29.59
12951;BME280;6540;50.858;7.232;2023-04-26T05:09:58;51882.78;;;-142.34;30.35
12951;BME280;6540;50.858;7.232;2023-04-26T05:12:24;51898.94;;;-142.34;30.60
12951;BME280;6540;50.858;7.232;2023-04-26T05:14:49;51856.56;;;-142.34;30.16
12951;BME280;6540;50.858;7.232;2023-04-26T05:17:15;51913.03;;;-142.34;30.02
12951;BME280;6540;50.858;7.232;2023-04-26T05:19:40;51884.81;;;-142.34;29.26
12951;BME280;6540;50.858;7.232;2023-04-26T05:22:05;51866.66;;;-142.34;29.43
12951;BME280;6540;50.858;7.232;2023-04-26T05:24:31;51927.16;;;-142.34;30.55
12951;BME280;6540;50.858;7.232;2023-04-26T05:26:57;51882.78;;;-142.34;30.66
12951;BME280;6540;50.858;7.232;2023-04-26T05:29:23;51890.84;;;-142.34;29.84
12951;BME280;6540;50.858;7.232;2023-04-26T05:31:48;51898.94;;;-142.34;29.85
12951;BME280;6540;50.858;7.232;2023-04-26T05:34:14;51915.06;;;-142.34;30.07
12951;BME280;6540;50.858;7.232;2023-04-26T05:36:39;51882.78;;;-142.34;31.11
12951;BME280;6540;50.858;7.232;2023-04-26T05:39:04;51939.28;;;-142.34;30.70
12951;BME280;6540;50.858;7.232;2023-04-26T05:41:31;51888.84;;;-142.34;30.59
12951;BME280;6540;50.858;7.232;2023-04-26T05:43:56;51848.50;;;-142.34;30.77
12951;BME280;6540;50.858;7.232;2023-04-26T05:46:21;51886.81;;;-142.34;29.85
12951;BME280;6540;50.858;7.232;2023-04-26T05:48:47;51933.22;;;-142.34;29.73
12951;BME280;6540;50.858;7.232;2023-04-26T05:51:12;51880.78;;;-142.34;30.50
12951;BME280;6540;50.858;7.232;2023-04-26T05:53:37;51907.00;;;-142.34;30.12
12951;BME280;6540;50.858;7.232;2023-04-26T05:56:03;51941.28;;;-142.34;29.67
12951;BME280;6540;50.858;7.232;2023-04-26T05:58:28;51915.06;;;-142.34;30.60
12951;BME280;6540;50.858;7.232;2023-04-26T06:00:54;51947.34;;;-142.34;30.39
12951;BME280;6540;50.858;7.232;2023-04-26T06:03:19;51892.88;;;-142.34;31.01
12951;BME280;6540;50.858;7.232;2023-04-26T06:05:44;51943.31;;;-142.34;29.09
12951;BME280;6540;50.858;7.232;2023-04-26T06:08:10;51943.31;;;-142.34;29.41
12951;BME280;6540;50.858;7.232;2023-04-26T06:10:35;51894.88;;;-142.34;29.90
12951;BME280;6540;50.858;7.232;2023-04-26T06:13:02;51892.88;;;-142.34;28.10
12951;BME280;6540;50.858;7.232;2023-04-26T06:15:27;51943.31;;;-142.34;27.58
12951;BME280;6540;50.858;7.232;2023-04-26T06:17:53;51880.78;;;-142.34;27.90
12951;BME280;6540;50.858;7.232;2023-04-26T06:20:19;51949.34;;;-142.34;28.39
12951;BME280;6540;50.858;7.232;2023-04-26T06:22:45;51886.81;;;-142.34;27.99
12951;BME280;6540;50.858;7.232;2023-04-26T06:25:11;51907.00;;;-142.34;27.68
12951;BME280;6540;50.858;7.232;2023-04-26T06:27:36;51925.16;;;-142.34;27.49
12951;BME280;6540;50.858;7.232;2023-04-26T06:30:04;51892.88;;;-142.34;26.89
12951;BME280;6540;50.858;7.232;2023-04-26T06:32:30;51878.75;;;-142.34;27.54
12951;BME280;6540;50.858;7.232;2023-04-26T06:34:56;51943.31;;;-142.34;27.00
12951;BME280;6540;50.858;7.232;2023-04-26T06:37:21;51898.94;;;-142.34;27.02
12951;BME280;6540;50.858;7.232;2023-04-26T06:39:46;51878.75;;;-142.34;26.76
12951;BME280;6540;50.858;7.232;2023-04-26T06:42:12;51860.59;;;-142.34;26.41
12951;BME280;6540;50.858;7.232;2023-04-26T06:44:37;51826.31;;;-142.34;26.10
12951;BME280;6540;50.858;7.232;2023-04-26T06:47:02;51834.38;;;-142.34;25.59
12951;BME280;6540;50.858;7.232;2023-04-26T06:49:28;51852.53;;;-142.34;25.36
12951;BME280;6540;50.858;7.232;2023-04-26T06:51:53;51822.25;;;-142.34;25.27
12951;BME280;6540;50.858;7.232;2023-04-26T06:54:18;51785.94;;;-142.34;26.64
12951;BME280;6540;50.858;7.232;2023-04-26T06:56:44;51765.78;;;-142.34;25.27
12951;BME280;6540;50.858;7.232;2023-04-26T06:59:19;51830.34;;;-142.34;24.83
12951;BME280;6540;50.858;7.232;2023-04-26T07:01:56;51794.03;;;-142.34;24.45
12951;BME280;6540;50.858;7.232;2023-04-26T07:04:34;51822.25;;;-142.34;25.55
12951;BME280;6540;50.858;7.232;2023-04-26T07:06:59;51773.84;;;-142.34;26.07
12951;BME280;6540;50.858;7.232;2023-04-26T07:09:33;51761.75;;;-142.34;25.91
12951;BME280;6540;50.858;7.232;2023-04-26T07:12:02;51808.16;;;-142.34;26.22
12951;BME280;6540;50.858;7.232;2023-04-26T07:14:27;51824.28;;;-142.34;25.83
12951;BME280;6540;50.858;7.232;2023-04-26T07:16:52;51814.19;;;-142.34;26.37
12951;BME280;6540;50.858;7.232;2023-04-26T07:19:18;51838.41;;;-142.34;26.10
12951;BME280;6540;50.858;7.232;2023-04-26T07:21:43;51806.13;;;-142.34;25.88
12951;BME280;6540;50.858;7.232;2023-04-26T07:24:09;51812.19;;;-142.34;25.40
12951;BME280;6540;50.858;7.232;2023-04-26T07:26:34;51804.13;;;-142.34;26.62
12951;BME280;6540;50.858;7.232;2023-04-26T07:29:01;51814.19;;;-142.34;25.83
12951;BME280;6540;50.858;7.232;2023-04-26T07:31:26;51818.22;;;-142.34;27.00
12951;BME280;6540;50.858;7.232;2023-04-26T07:33:52;51822.25;;;-142.34;27.32
12951;BME280;6540;50.858;7.232;2023-04-26T07:36:17;51822.25;;;-142.34;26.80
12951;BME280;6540;50.858;7.232;2023-04-26T07:38:42;51838.41;;;-142.34;27.30
12951;BME280;6540;50.858;7.232;2023-04-26T07:41:08;51848.50;;;-142.34;26.25
12951;BME280;6540;50.858;7.232;2023-04-26T07:43:33;51832.34;;;-142.34;26.44
12951;BME280;6540;50.858;7.232;2023-04-26T07:45:59;51850.50;;;-142.34;25.43
12951;BME280;6540;50.858;7.232;2023-04-26T07:48:26;51806.13;;;-142.34;25.86
12951;BME280;6540;50.858;7.232;2023-04-26T07:50:51;51808.16;;;-142.34;25.00
12951;BME280;6540;50.858;7.232;2023-04-26T07:53:17;51798.06;;;-142.34;25.65
12951;BME280;6540;50.858;7.232;2023-04-26T07:55:42;51812.19;;;-142.34;25.95
12951;BME280;6540;50.858;7.232;2023-04-26T07:58:07;51828.31;;;-142.34;25.94
12951;BME280;6540;50.858;7.232;2023-04-26T08:00:33;51818.22;;;-142.34;25.88
12951;BME280;6540;50.858;7.232;2023-04-26T08:03:02;51800.06;;;-142.34;25.22
12951;BME280;6540;50.858;7.232;2023-04-26T08:05:28;51810.16;;;-142.34;25.66
12951;BME280;6540;50.858;7.232;2023-04-26T08:07:53;51814.19;;;-142.34;24.73
12951;BME280;6540;50.858;7.232;2023-04-26T08:10:18;51787.97;;;-142.34;25.03
12951;BME280;6540;50.858;7.232;2023-04-26T08:12:44;51852.53;;;-142.34;26.44
12951;BME280;6540;50.858;7.232;2023-04-26T08:15:10;51787.97;;;-142.34;26.05
12951;BME280;6540;50.858;7.232;2023-04-26T08:17:35;51828.31;;;-142.34;25.68
12951;BME280;6540;50.858;7.232;2023-04-26T08:20:01;51834.38;;;-142.34;25.32
12951;BME280;6540;50.858;7.232;2023-04-26T08:22:29;51808.16;;;-142.34;25.32
12951;BME280;6540;50.858;7.232;2023-04-26T08:24:54;51830.34;;;-142.34;25.44
12951;BME280;6540;50.858;7.232;2023-04-26T08:27:20;51773.84;;;-142.34;24.98
12951;BME280;6540;50.858;7.232;2023-04-26T08:29:46;51798.06;;;-142.34;24.29
12951;BME280;6540;50.858;7.232;2023-04-26T08:32:11;51794.03;;;-142.34;24.14
12951;BME280;6540;50.858;7.232;2023-04-26T08:34:37;51790.00;;;-142.34;24.05
12951;BME280;6540;50.858;7.232;2023-04-26T08:37:02;51781.91;;;-142.34;24.57
12951;BME280;6540;50.858;7.232;2023-04-26T08:39:28;51794.03;;;-142.34;23.89
12951;BME280;6540;50.858;7.232;2023-04-26T08:41:54;51814.19;;;-142.34;24.48
12951;BME280;6540;50.858;7.232;2023-04-26T08:44:23;51775.88;;;-142.34;24.41
12951;BME280;6540;50.858;7.232;2023-04-26T08:46:57;51798.06;;;-142.34;23.97
12951;BME280;6540;50.858;7.232;2023-04-26T08:51:52;51796.03;;;-142.34;24.13
12951;BME280;6540;50.858;7.232;2023-04-26T08:54:18;51775.88;;;-142.34;23.73
12951;BME280;6540;50.858;7.232;2023-04-26T08:56:45;51749.66;;;-142.34;24.92
12951;BME280;6540;50.858;7.232;2023-04-26T08:59:11;51806.13;;;-142.34;25.09
12951;BME280;6540;50.858;7.232;2023-04-26T09:01:41;51765.78;;;-142.34;24.72
12951;BME280;6540;50.858;7.232;2023-04-26T09:04:08;51743.59;;;-142.34;23.70
12951;BME280;6540;50.858;7.232;2023-04-26T09:06:33;51749.66;;;-142.34;24.53
12951;BME280;6540;50.858;7.232;2023-04-26T09:09:01;51757.72;;;-142.34;24.21
12951;BME280;6540;50.858;7.232;2023-04-26T09:11:29;51798.06;;;-142.34;24.29
12951;BME280;6540;50.858;7.232;2023-04-26T09:13:55;51800.06;;;-142.34;24.31
12951;BME280;6540;50.858;7.232;2023-04-26T09:16:33;51781.91;;;-142.34;24.58
12951;BME280;6540;50.858;7.232;2023-04-26T09:18:59;51781.91;;;-142.34;23.94
12951;BME280;6540;50.858;7.232;2023-04-26T09:21:26;51781.91;;;-142.34;23.83
12951;BME280;6540;50.858;7.232;2023-04-26T09:23:59;51792.00;;;-142.34;24.46
12951;BME280;6540;50.858;7.232;2023-04-26T09:26:25;51787.97;;;-142.34;25.41
12951;BME280;6540;50.858;7.232;2023-04-26T09:29:16;51804.13;;;-142.34;24.42
12951;BME280;6540;50.858;7.232;2023-04-26T09:31:48;51790.00;;;-142.34;24.15
12951;BME280;6540;50.858;7.232;2023-04-26T09:34:15;51773.84;;;-142.34;22.79
12951;BME280;6540;50.858;7.232;2023-04-26T09:36:45;51802.09;;;-142.34;23.05
12951;BME280;6540;50.858;7.232;2023-04-26T09:39:11;51808.16;;;-142.34;23.43
12951;BME280;6540;50.858;7.232;2023-04-26T09:41:43;51749.66;;;-142.34;23.12
12951;BME280;6540;50.858;7.232;2023-04-26T09:44:22;51771.84;;;-142.34;22.60
12951;BME280;6540;50.858;7.232;2023-04-26T09:47:00;51763.75;;;-142.34;23.69
12951;BME280;6540;50.858;7.232;2023-04-26T09:49:41;51790.00;;;-142.34;23.98
12951;BME280;6540;50.858;7.232;2023-04-26T09:52:07;51769.81;;;-142.34;23.09
12951;BME280;6540;50.858;7.232;2023-04-26T09:54:52;51735.53;;;-142.34;23.01
12951;BME280;6540;50.858;7.232;2023-04-26T09:57:19;51759.72;;;-142.34;22.51
12951;BME280;6540;50.858;7.232;2023-04-26T09:59:48;51747.63;;;-142.34;23.04
12951;BME280;6540;50.858;7.232;2023-04-26T10:02:23;51783.94;;;-142.34;23.12
12951;BME280;6540;50.858;7.232;2023-04-26T10:04:51;51757.72;;;-142.34;23.50
12951;BME280;6540;50.858;7.232;2023-04-26T10:07:19;51743.59;;;-142.34;23.10
12951;BME280;6540;50.858;7.232;2023-04-26T10:09:45;51737.53;;;-142.34;22.92
12951;BME280;6540;50.858;7.232;2023-04-26T10:12:13;51785.94;;;-142.34;23.49
12951;BME280;6540;50.858;7.232;2023-04-26T10:14:39;51725.44;;;-142.34;22.91
12951;BME280;6540;50.858;7.232;2023-04-26T10:17:08;51792.00;;;-142.34;23.55
12951;BME280;6540;50.858;7.232;2023-04-26T10:19:35;51790.00;;;-142.34;23.48
12951;BME280;6540;50.858;7.232;2023-04-26T10:22:28;51761.75;;;-142.34;24.05
12951;BME280;6540;50.858;7.232;2023-04-26T10:24:55;51804.13;;;-142.34;23.67
12951;BME280;6540;50.858;7.232;2023-04-26T10:30:19;51759.72;;;-142.34;23.11
12951;BME280;6540;50.858;7.232;2023-04-26T10:35:18;51757.72;;;-142.34;22.73
12951;BME280;6540;50.858;7.232;2023-04-26T10:40:31;51785.94;;;-142.34;23.28
12951;BME280;6540;50.858;7.232;2023-04-26T10:45:39;51773.84;;;-142.34;22.65
12951;BME280;6540;50.858;7.232;2023-04-26T10:48:15;51765.78;;;-142.34;22.60
12951;BME280;6540;50.858;7.232;2023-04-26T10:56:56;51785.94;;;-142.34;24.26
12951;BME280;6540;50.858;7.232;2023-04-26T10:59:11;51781.91;;;-142.34;22.98
12951;BME280;6540;50.858;7.232;2023-04-26T11:01:37;51828.31;;;-142.34;23.76
12951;BME280;6540;50.858;7.232;2023-04-26T11:04:10;51761.75;;;-142.34;22.94
12951;BME280;6540;50.858;7.232;2023-04-26T11:06:54;51761.75;;;-142.34;22.67
12951;BME280;6540;50.858;7.232;2023-04-26T11:09:40;51773.84;;;-142.34;22.36
12951;BME280;6540;50.858;7.232;2023-04-26T11:12:14;51765.78;;;-142.34;23.29
12951;BME280;6540;50.858;7.232;2023-04-26T11:14:41;51741.56;;;-142.34;22.43
12951;BME280;6540;50.858;7.232;2023-04-26T11:17:10;51787.97;;;-142.34;22.65
12951;BME280;6540;50.858;7.232;2023-04-26T11:19:36;51790.00;;;-142.34;22.46
12951;BME280;6540;50.858;7.232;2023-04-26T11:22:04;51739.56;;;-142.34;22.57
12951;BME280;6540;50.858;7.232;2023-04-26T11:24:30;51765.78;;;-142.34;22.38
12951;BME280;6540;50.858;7.232;2023-04-26T11:26:57;51802.09;;;-142.34;24.07
12951;BME280;6540;50.858;7.232;2023-04-26T11:29:23;51777.88;;;-142.34;23.68
12951;BME280;6540;50.858;7.232;2023-04-26T11:31:54;51785.94;;;-142.34;23.16
12951;BME280;6540;50.858;7.232;2023-04-26T11:34:41;51769.81;;;-142.34;23.14
12951;BME280;6540;50.858;7.232;2023-04-26T11:37:06;51745.59;;;-142.34;23.21
12951;BME280;6540;50.858;7.232;2023-04-26T11:39:32;51751.66;;;-142.34;22.51
12951;BME280;6540;50.858;7.232;2023-04-26T11:42:11;51769.81;;;-142.34;22.63
12951;BME280;6540;50.858;7.232;2023-04-26T11:44:37;51747.63;;;-142.34;22.92
12951;BME280;6540;50.858;7.232;2023-04-26T11:47:04;51765.78;;;-142.34;23.31
12951;BME280;6540;50.858;7.232;2023-04-26T11:49:31;51794.03;;;-142.34;22.70
12951;BME280;6540;50.858;7.232;2023-04-26T11:51:57;51731.50;;;-142.34;22.91
12951;BME280;6540;50.858;7.232;2023-04-26T11:54:30;51771.84;;;-142.34;24.09
12951;BME280;6540;50.858;7.232;2023-04-26T11:56:57;51775.88;;;-142.34;24.19
12951;BME280;6540;50.858;7.232;2023-04-26T11:59:29;51787.97;;;-142.34;22.97
12951;BME280;6540;50.858;7.232;2023-04-26T12:01:58;51719.38;;;-142.34;22.77
12951;BME280;6540;50.858;7.232;2023-04-26T12:04:26;51721.41;;;-142.34;22.27
12951;BME280;6540;50.858;7.232;2023-04-26T12:06:54;51739.56;;;-142.34;22.00
12951;BME280;6540;50.858;7.232;2023-04-26T12:09:23;51753.69;;;-142.34;22.48
12951;BME280;6540;50.858;7.232;2023-04-26T12:12:02;51717.38;;;-142.34;22.82
12951;BME280;6540;50.858;7.232;2023-04-26T12:16:58;51717.38;;;-142.34;22.53
12951;BME280;6540;50.858;7.232;2023-04-26T12:19:23;51739.56;;;-142.34;22.35
12951;BME280;6540;50.858;7.232;2023-04-26T12:21:49;51729.47;;;-142.34;22.99
12951;BME280;6540;50.858;7.232;2023-04-26T12:24:24;51709.31;;;-142.34;22.60
12951;BME280;6540;50.858;7.232;2023-04-26T12:26:49;51755.69;;;-142.34;22.78
12951;BME280;6540;50.858;7.232;2023-04-26T12:29:15;51763.75;;;-142.34;23.88
12951;BME280;6540;50.858;7.232;2023-04-26T12:31:41;51745.59;;;-142.34;21.72
12951;BME280;6540;50.858;7.232;2023-04-26T12:34:06;51761.75;;;-142.34;22.18
12951;BME280;6540;50.858;7.232;2023-04-26T12:36:32;51741.56;;;-142.34;22.13
12951;BME280;6540;50.858;7.232;2023-04-26T12:38:58;51725.44;;;-142.34;21.99
12951;BME280;6540;50.858;7.232;2023-04-26T12:41:24;51749.66;;;-142.34;22.13
12951;BME280;6540;50.858;7.232;2023-04-26T12:43:50;51691.16;;;-142.34;22.36
12951;BME280;6540;50.858;7.232;2023-04-26T12:46:15;51741.56;;;-142.34;22.03
12951;BME280;6540;50.858;7.232;2023-04-26T12:48:41;51739.56;;;-142.34;22.72
12951;BME280;6540;50.858;7.232;2023-04-26T12:51:06;51743.59;;;-142.34;22.04
12951;BME280;6540;50.858;7.232;2023-04-26T12:53:31;51777.88;;;-142.34;23.01
12951;BME280;6540;50.858;7.232;2023-04-26T12:55:57;51769.81;;;-142.34;24.02
12951;BME280;6540;50.858;7.232;2023-04-26T12:58:23;51785.94;;;-142.34;22.09
12951;BME280;6540;50.858;7.232;2023-04-26T13:00:49;51761.75;;;-142.34;22.92
12951;BME280;6540;50.858;7.232;2023-04-26T13:03:15;51763.75;;;-142.34;22.26
12951;BME280;6540;50.858;7.232;2023-04-26T13:05:41;51777.88;;;-142.34;22.91
12951;BME280;6540;50.858;7.232;2023-04-26T13:08:07;51737.53;;;-142.34;23.16
12951;BME280;6540;50.858;7.232;2023-04-26T13:10:32;51753.69;;;-142.34;23.16